Anchor River Airpark


Codes: AK00/
Name: Anchor River Airpark
City: Anchor Point
Country: United States
Elevation: 120 ft.

Photos at Anchor River Airpark


   Photos courtesy of SpottingLog. You can add your own sightings and photos by signing up for a free trial today.



No photos found.

Weather at Anchor River Airpark


Time (UTC)DescriptionTempratureWindCloud coverageVisibilityPressureHumidity
25-Jun-2024 15:00Overcast Clouds12°C2 mph, 89%10000m1018hPa94%
25-Jun-2024 18:00Overcast Clouds12°C2 mph, SW94%10000m1019hPa90%
25-Jun-2024 21:00Broken Clouds12°C7 mph, W80%10000m1019hPa84%
26-Jun-2024 00:00Broken Clouds13°C4 mph, W70%10000m1019hPa82%
26-Jun-2024 03:00Scattered Clouds13°C7 mph, SW29%10000m1018hPa82%
26-Jun-2024 06:00Scattered Clouds12°C7 mph, SW27%10000m1018hPa87%
26-Jun-2024 09:00Scattered Clouds10°C4 mph, SW49%10000m1018hPa93%
26-Jun-2024 12:00Scattered Clouds9°C4 mph, S39%10000m1017hPa92%
26-Jun-2024 15:00Few Clouds10°C4 mph, S24%10000m1017hPa88%
26-Jun-2024 18:00Few Clouds11°C4 mph, SW19%10000m1016hPa79%
26-Jun-2024 21:00Few Clouds12°C7 mph, W11%10000m1016hPa73%
27-Jun-2024 00:00Few Clouds12°C9 mph, SW14%10000m1015hPa74%
27-Jun-2024 03:00Broken Clouds12°C7 mph, W75%10000m1015hPa75%
27-Jun-2024 06:00Overcast Clouds11°C4 mph, SW87%10000m1015hPa84%
27-Jun-2024 09:00Overcast Clouds10°C2 mph, W100%10000m1014hPa88%
27-Jun-2024 12:00Overcast Clouds10°C2 mph, SW100%10000m1014hPa89%
27-Jun-2024 15:00Overcast Clouds10°C2 mph, SW100%10000m1014hPa87%
27-Jun-2024 18:00Overcast Clouds11°C4 mph, SW100%10000m1014hPa80%
27-Jun-2024 21:00Overcast Clouds12°C7 mph, SW100%10000m1015hPa76%
28-Jun-2024 00:00Overcast Clouds12°C9 mph, W100%10000m1014hPa79%
28-Jun-2024 03:00Overcast Clouds11°C9 mph, W99%10000m1014hPa84%
28-Jun-2024 06:00Overcast Clouds10°C7 mph, W100%6870m1015hPa92%
28-Jun-2024 09:00Overcast Clouds10°C4 mph, W100%10000m1015hPa93%
28-Jun-2024 12:00Overcast Clouds10°C2 mph, W100%10000m1015hPa92%
28-Jun-2024 15:00Overcast Clouds10°C2 mph, SW100%10000m1014hPa89%
28-Jun-2024 18:00Overcast Clouds11°C4 mph, W100%10000m1014hPa85%
28-Jun-2024 21:00Overcast Clouds12°C7 mph, SW98%10000m1014hPa80%
29-Jun-2024 00:00Overcast Clouds12°C9 mph, SW93%10000m1013hPa78%
29-Jun-2024 03:00Overcast Clouds12°C7 mph, SW100%10000m1012hPa79%
29-Jun-2024 06:00Overcast Clouds11°C7 mph, S100%10000m1012hPa83%
29-Jun-2024 09:00Overcast Clouds10°C4 mph, S100%10000m1011hPa85%
29-Jun-2024 12:00Broken Clouds10°C4 mph, S79%10000m1011hPa86%
29-Jun-2024 15:00Few Clouds11°C2 mph, S20%10000m1010hPa83%
29-Jun-2024 18:00Scattered Clouds12°C4 mph, W46%10000m1010hPa79%
29-Jun-2024 21:00Overcast Clouds12°C7 mph, SW100%10000m1010hPa78%
30-Jun-2024 00:00Overcast Clouds12°C9 mph, SW100%10000m1010hPa77%
30-Jun-2024 03:00Overcast Clouds12°C9 mph, SW100%10000m1010hPa79%
30-Jun-2024 06:00Overcast Clouds11°C9 mph, SW96%10000m1010hPa85%
30-Jun-2024 09:00Few Clouds10°C9 mph, S20%10000m1010hPa89%
30-Jun-2024 12:00Few Clouds10°C7 mph, S14%10000m1010hPa88%